CZ-0108 weather

Bezno Airstrip
Bezno, Central Bohemian Region, Czechia

Public forecast

Using degrees Celsius for public forecast. Weather courtesy of forecast.io.

Closest aviation weather report (METAR) to Bezno Airstrip

Closest report is Kbely Air Base, 17.4 nm (32.2 km) SW. Retrieved 2019/10/17 04:00 UTC (14 minutes ago):

LKKB 170400Z 18007KT CAVOK 08/05 Q1016 NOSIG

Closest aviation forecast (TAF) to Bezno Airstrip

Closest forecast is Kbely Air Base, 17.4 nm (32.2 km) SW. Retrieved 2019-10-17 00:00 UTC (4 hours ago):

TAF LKKB 162300Z 1700/1800 18005KT CAVOK TEMPO 1700/1703 19008KT BECMG 1719/1721 4500 BR BKN025